createdAt,value
2023-04-26T00:00:19.154Z,26.78
2023-04-26T00:01:19.326Z,26.75
2023-04-26T00:02:19.377Z,26.76
2023-04-26T00:03:19.971Z,26.75
2023-04-26T00:04:19.388Z,26.76
2023-04-26T00:05:19.446Z,26.75
2023-04-26T00:06:19.870Z,26.75
2023-04-26T00:07:19.473Z,26.76
2023-04-26T00:08:19.397Z,26.75
2023-04-26T00:09:19.451Z,26.76
2023-04-26T00:10:19.596Z,26.76
2023-04-26T00:11:19.498Z,26.75
2023-04-26T00:12:19.499Z,26.73
2023-04-26T00:13:19.505Z,26.78
2023-04-26T00:14:19.622Z,26.75
2023-04-26T00:15:19.645Z,26.76
2023-04-26T00:16:19.708Z,26.75
2023-04-26T00:17:19.776Z,26.75
2023-04-26T00:18:19.772Z,26.76
2023-04-26T00:19:19.831Z,26.76
2023-04-26T00:20:19.827Z,26.75
2023-04-26T00:21:19.867Z,26.75
2023-04-26T00:22:19.872Z,26.78
2023-04-26T00:23:19.988Z,26.75
2023-04-26T00:24:20.010Z,26.75
2023-04-26T00:25:20.105Z,26.76
2023-04-26T00:26:20.109Z,26.73
2023-04-26T00:27:20.221Z,26.73
2023-04-26T00:28:20.077Z,26.75
2023-04-26T00:29:20.133Z,26.75
2023-04-26T00:30:20.134Z,26.72
2023-04-26T00:31:20.282Z,26.73
2023-04-26T00:32:20.292Z,26.75
2023-04-26T00:33:21.921Z,26.73
2023-04-26T00:34:20.267Z,26.72
2023-04-26T00:35:20.377Z,26.75
2023-04-26T00:36:20.487Z,26.75
2023-04-26T00:37:20.493Z,26.73
2023-04-26T00:38:20.431Z,26.72
2023-04-26T00:39:20.509Z,26.73
2023-04-26T00:40:20.619Z,26.73
2023-04-26T00:41:20.888Z,26.73
2023-04-26T00:42:20.522Z,26.72
2023-04-26T00:43:20.561Z,26.73
2023-04-26T00:44:20.617Z,26.75
2023-04-26T00:45:20.649Z,26.73
2023-04-26T00:46:20.706Z,26.73
2023-04-26T00:47:20.665Z,26.75
2023-04-26T00:48:20.702Z,26.73
2023-04-26T00:49:20.786Z,26.73
2023-04-26T00:50:20.990Z,26.70
2023-04-26T00:51:21.418Z,26.75
2023-04-26T00:52:21.929Z,26.72
2023-04-26T00:53:21.017Z,26.72
2023-04-26T00:54:21.024Z,26.70
2023-04-26T00:55:21.045Z,26.73
2023-04-26T00:56:21.131Z,26.70
2023-04-26T00:57:21.137Z,26.75
2023-04-26T00:58:21.215Z,26.73
2023-04-26T00:59:21.205Z,26.70
2023-04-26T01:00:21.369Z,26.72
2023-04-26T01:01:21.315Z,26.73
2023-04-26T01:02:21.406Z,26.72
2023-04-26T01:03:21.598Z,26.72
2023-04-26T01:04:22.158Z,26.75
2023-04-26T01:05:21.419Z,26.72
2023-04-26T01:06:21.452Z,26.70
2023-04-26T01:07:21.623Z,26.73
2023-04-26T01:08:21.574Z,26.70
2023-04-26T01:09:22.044Z,26.72
2023-04-26T01:10:21.658Z,26.70
2023-04-26T01:11:21.694Z,26.72
2023-04-26T01:12:21.887Z,26.70
2023-04-26T01:13:21.808Z,26.73
2023-04-26T01:14:21.995Z,26.70
2023-04-26T01:15:21.841Z,26.73
2023-04-26T01:16:21.954Z,26.70
2023-04-26T01:17:21.948Z,26.70
2023-04-26T01:18:21.999Z,26.72
2023-04-26T01:19:22.056Z,26.69
2023-04-26T01:20:22.978Z,26.69
2023-04-26T01:21:22.123Z,26.72
2023-04-26T01:22:22.845Z,26.69
2023-04-26T01:23:22.193Z,26.70
2023-04-26T01:24:22.258Z,26.70
2023-04-26T01:25:22.310Z,26.72
2023-04-26T01:26:22.463Z,26.70
2023-04-26T01:27:22.368Z,26.69
2023-04-26T01:28:22.426Z,26.70
2023-04-26T01:29:22.437Z,26.72
2023-04-26T01:30:22.497Z,26.70
2023-04-26T01:31:22.539Z,26.69
2023-04-26T01:32:22.620Z,26.70
2023-04-26T01:33:22.631Z,26.70
2023-04-26T01:34:22.629Z,26.69
2023-04-26T01:35:22.704Z,26.69
2023-04-26T01:36:22.884Z,26.70
2023-04-26T01:37:22.792Z,26.69
2023-04-26T01:38:22.800Z,26.70
2023-04-26T01:39:22.858Z,26.69
2023-04-26T01:40:23.022Z,26.70
2023-04-26T01:41:22.974Z,26.69
2023-04-26T01:42:22.984Z,26.68
2023-04-26T01:43:23.024Z,26.70
2023-04-26T01:44:23.045Z,26.69
2023-04-26T01:45:23.117Z,26.70
2023-04-26T01:46:23.243Z,26.69
2023-04-26T01:47:23.257Z,26.69
2023-04-26T01:48:23.222Z,26.66
2023-04-26T01:49:23.278Z,26.68
2023-04-26T01:50:23.848Z,26.64
2023-04-26T01:51:23.470Z,26.69
2023-04-26T01:52:23.412Z,26.68
2023-04-26T01:53:23.469Z,26.69
2023-04-26T01:54:23.500Z,26.68
2023-04-26T01:55:23.577Z,26.68
2023-04-26T01:56:23.587Z,26.70
2023-04-26T01:57:23.752Z,26.68
2023-04-26T01:58:23.707Z,26.66
2023-04-26T01:59:23.713Z,26.68
2023-04-26T02:00:23.774Z,26.69
2023-04-26T02:01:23.961Z,26.69
2023-04-26T02:02:23.876Z,26.69
2023-04-26T02:03:23.943Z,26.66
2023-04-26T02:04:23.897Z,26.68
2023-04-26T02:05:24.093Z,26.68
2023-04-26T02:06:24.021Z,26.66
2023-04-26T02:07:24.026Z,26.68
2023-04-26T02:08:24.046Z,26.66
2023-04-26T02:09:24.032Z,26.66
2023-04-26T02:10:24.098Z,26.69
2023-04-26T02:11:24.098Z,26.66
2023-04-26T02:12:24.109Z,26.64
2023-04-26T02:13:24.228Z,26.66
2023-04-26T02:14:24.170Z,26.69
2023-04-26T02:15:24.902Z,26.66
2023-04-26T02:16:24.331Z,26.68
2023-04-26T02:17:24.242Z,26.68
2023-04-26T02:18:24.332Z,26.68
2023-04-26T02:19:24.366Z,26.66
2023-04-26T02:20:24.875Z,26.66
2023-04-26T02:21:24.351Z,26.68
2023-04-26T02:22:25.003Z,26.69
2023-04-26T02:23:24.383Z,26.68
2023-04-26T02:24:24.452Z,26.66
2023-04-26T02:25:24.449Z,26.66
2023-04-26T02:26:24.537Z,26.66
2023-04-26T02:27:24.521Z,26.66
2023-04-26T02:28:24.550Z,26.68
2023-04-26T02:29:36.367Z,26.68
2023-04-26T02:30:25.580Z,26.64
2023-04-26T02:31:24.630Z,26.66
2023-04-26T02:32:24.586Z,26.66
2023-04-26T02:33:24.570Z,26.68
2023-04-26T02:34:24.849Z,26.64
2023-04-26T02:35:24.778Z,26.64
2023-04-26T02:36:24.498Z,26.68
2023-04-26T02:37:24.480Z,26.63
2023-04-26T02:38:24.502Z,26.63
2023-04-26T02:39:24.914Z,26.64
2023-04-26T02:40:24.454Z,26.64
2023-04-26T02:41:24.471Z,26.63
2023-04-26T02:42:24.473Z,26.68
2023-04-26T02:43:24.451Z,26.64
2023-04-26T02:44:24.531Z,26.64
2023-04-26T02:45:24.537Z,26.66
2023-04-26T02:46:24.628Z,26.68
2023-04-26T02:47:24.685Z,26.64
2023-04-26T02:48:24.776Z,26.63
2023-04-26T02:49:24.670Z,26.66
2023-04-26T02:50:24.704Z,26.64
2023-04-26T02:51:24.708Z,26.64
2023-04-26T02:52:24.740Z,26.64
2023-04-26T02:53:24.814Z,26.63
2023-04-26T02:54:24.904Z,26.64
2023-04-26T02:55:24.913Z,26.63
2023-04-26T02:56:24.877Z,26.63
2023-04-26T02:57:24.929Z,26.64
2023-04-26T02:58:24.920Z,26.63
2023-04-26T02:59:24.945Z,26.64
2023-04-26T03:00:24.998Z,26.64
2023-04-26T03:01:25.092Z,26.63
2023-04-26T03:02:25.198Z,26.64
2023-04-26T03:03:25.259Z,26.63
2023-04-26T03:04:25.247Z,26.62
2023-04-26T03:05:25.438Z,26.62
2023-04-26T03:06:25.944Z,26.64
2023-04-26T03:07:25.207Z,26.63
2023-04-26T03:08:25.270Z,26.62
2023-04-26T03:09:25.274Z,26.63
2023-04-26T03:10:25.344Z,26.63
2023-04-26T03:11:25.321Z,26.63
2023-04-26T03:12:25.376Z,26.63
2023-04-26T03:13:25.475Z,26.62
2023-04-26T03:14:25.452Z,26.62
2023-04-26T03:15:32.988Z,26.62
2023-04-26T03:16:25.509Z,26.63
2023-04-26T03:17:25.501Z,26.63
2023-04-26T03:18:25.443Z,26.60
2023-04-26T03:19:25.489Z,26.62
2023-04-26T03:20:25.531Z,26.62
2023-04-26T03:21:25.439Z,26.63
2023-04-26T03:22:25.440Z,26.63
2023-04-26T03:23:25.457Z,26.62
2023-04-26T03:24:25.418Z,26.62
2023-04-26T03:25:25.430Z,26.59
2023-04-26T03:26:25.443Z,26.64
2023-04-26T03:27:25.432Z,26.59
2023-04-26T03:28:25.486Z,26.62
2023-04-26T03:29:25.382Z,26.62
2023-04-26T03:30:25.410Z,26.62
2023-04-26T03:31:25.393Z,26.62
2023-04-26T03:32:25.513Z,26.63
2023-04-26T03:33:25.393Z,26.62
2023-04-26T03:34:25.413Z,26.62
2023-04-26T03:35:25.350Z,26.62
2023-04-26T03:36:25.346Z,26.62
2023-04-26T03:37:25.359Z,26.59
2023-04-26T03:38:25.317Z,26.62
2023-04-26T03:39:25.328Z,26.63
2023-04-26T03:40:25.327Z,26.60
2023-04-26T03:41:25.332Z,26.62
2023-04-26T03:42:25.397Z,26.60
2023-04-26T03:43:25.395Z,26.60
2023-04-26T03:44:25.448Z,26.60
2023-04-26T03:45:25.471Z,26.62
2023-04-26T03:46:25.523Z,26.60
2023-04-26T03:47:25.598Z,26.60
2023-04-26T03:48:25.593Z,26.60
2023-04-26T03:49:25.599Z,26.60
2023-04-26T03:50:25.595Z,26.62
2023-04-26T03:51:25.678Z,26.63
2023-04-26T03:52:25.941Z,26.62
2023-04-26T03:53:25.737Z,26.58
2023-04-26T03:54:25.740Z,26.60
2023-04-26T03:55:25.780Z,26.60
2023-04-26T03:56:25.848Z,26.60
2023-04-26T03:57:25.860Z,26.60
2023-04-26T03:58:25.860Z,26.60
2023-04-26T03:59:25.868Z,26.62
2023-04-26T04:00:25.925Z,26.62
2023-04-26T04:01:25.986Z,26.59
2023-04-26T04:02:27.093Z,26.62
2023-04-26T04:03:26.124Z,26.60
2023-04-26T04:04:26.168Z,26.59
2023-04-26T04:05:26.116Z,26.60
2023-04-26T04:06:26.127Z,26.59
2023-04-26T04:07:26.126Z,26.60
2023-04-26T04:08:26.136Z,26.59
2023-04-26T04:09:26.185Z,26.58
2023-04-26T04:10:26.202Z,26.58
2023-04-26T04:11:26.258Z,26.56
2023-04-26T04:12:26.212Z,26.58
2023-04-26T04:13:26.270Z,26.56
2023-04-26T04:14:26.282Z,26.55
2023-04-26T04:15:26.319Z,26.55
2023-04-26T04:16:26.646Z,26.56
2023-04-26T04:17:26.432Z,26.55
2023-04-26T04:18:26.414Z,26.55
2023-04-26T04:19:26.418Z,26.53
2023-04-26T04:20:26.450Z,26.55
2023-04-26T04:21:26.475Z,26.58
2023-04-26T04:22:26.912Z,26.56
2023-04-26T04:23:26.537Z,26.53
2023-04-26T04:24:26.575Z,26.53
2023-04-26T04:25:26.562Z,26.56
2023-04-26T04:26:26.558Z,26.56
2023-04-26T04:27:26.561Z,26.53
2023-04-26T04:28:26.620Z,26.53
2023-04-26T04:29:26.626Z,26.55
2023-04-26T04:30:26.658Z,26.53
2023-04-26T04:31:26.655Z,26.53
2023-04-26T04:32:26.743Z,26.53
2023-04-26T04:33:26.718Z,26.52
2023-04-26T04:34:26.682Z,26.53
2023-04-26T04:35:26.727Z,26.53
2023-04-26T04:36:26.736Z,26.53
2023-04-26T04:37:26.781Z,26.53
2023-04-26T04:38:26.798Z,26.53
2023-04-26T04:39:26.849Z,26.52
2023-04-26T04:40:26.856Z,26.55
2023-04-26T04:41:26.865Z,26.55
2023-04-26T04:42:26.914Z,26.53
2023-04-26T04:43:26.923Z,26.55
2023-04-26T04:44:26.962Z,26.56
2023-04-26T04:45:26.937Z,26.56
2023-04-26T04:46:27.015Z,26.53
2023-04-26T04:47:26.949Z,26.56
2023-04-26T04:48:27.029Z,26.55
2023-04-26T04:49:26.963Z,26.53
2023-04-26T04:50:27.008Z,26.52
2023-04-26T04:51:26.989Z,26.52
2023-04-26T04:52:27.115Z,26.55
2023-04-26T04:53:27.058Z,26.53
2023-04-26T04:54:27.113Z,26.53
2023-04-26T04:55:27.188Z,26.53
2023-04-26T04:56:27.121Z,26.55
2023-04-26T04:57:27.136Z,26.53
2023-04-26T04:58:27.152Z,26.55
2023-04-26T04:59:28.097Z,26.55
2023-04-26T05:00:27.227Z,26.55
2023-04-26T05:01:27.274Z,26.55
2023-04-26T05:02:27.365Z,26.55
2023-04-26T05:03:27.431Z,26.52
2023-04-26T05:04:27.613Z,26.55
2023-04-26T05:05:27.368Z,26.56
2023-04-26T05:06:27.396Z,26.56
2023-04-26T05:07:28.994Z,26.56
2023-04-26T05:08:27.362Z,26.55
2023-04-26T05:09:27.371Z,26.53
2023-04-26T05:10:27.376Z,26.52
2023-04-26T05:11:27.331Z,26.51
2023-04-26T05:12:27.402Z,26.49
2023-04-26T05:13:27.401Z,26.51
2023-04-26T05:14:27.438Z,26.51
2023-04-26T05:15:27.449Z,26.52
2023-04-26T05:16:27.466Z,26.53
2023-04-26T05:17:27.515Z,26.53
2023-04-26T05:18:27.503Z,26.58
2023-04-26T05:19:27.499Z,26.60
2023-04-26T05:20:27.677Z,26.63
2023-04-26T05:21:27.603Z,26.63
2023-04-26T05:22:27.977Z,26.63
2023-04-26T05:23:27.729Z,26.66
2023-04-26T05:24:27.753Z,26.62
2023-04-26T05:25:27.817Z,26.64
2023-04-26T05:26:28.878Z,26.66
2023-04-26T05:27:27.842Z,26.68
2023-04-26T05:28:27.816Z,26.68
2023-04-26T05:29:27.878Z,26.64
2023-04-26T05:30:27.934Z,26.66
2023-04-26T05:31:27.944Z,26.69
2023-04-26T05:32:27.998Z,26.69
2023-04-26T05:33:27.998Z,26.68
2023-04-26T05:34:28.082Z,26.69
2023-04-26T05:35:28.069Z,26.68
2023-04-26T05:36:29.942Z,26.64
2023-04-26T05:37:28.144Z,26.68
2023-04-26T05:38:28.133Z,26.66
2023-04-26T05:39:28.204Z,26.66
2023-04-26T05:40:28.222Z,26.68
2023-04-26T05:41:28.459Z,26.63
2023-04-26T05:42:28.481Z,26.62
2023-04-26T05:43:28.324Z,26.60
2023-04-26T05:44:28.272Z,26.62
2023-04-26T05:45:28.403Z,26.63
2023-04-26T05:46:28.395Z,26.62
2023-04-26T05:47:28.433Z,26.63
2023-04-26T05:48:28.495Z,26.63
2023-04-26T05:49:28.487Z,26.63
2023-04-26T05:50:28.491Z,26.62
2023-04-26T05:51:28.504Z,26.60
2023-04-26T05:52:29.255Z,26.64
2023-04-26T05:53:28.536Z,26.60
2023-04-26T05:54:28.500Z,26.63
2023-04-26T05:55:28.559Z,26.63
2023-04-26T05:56:28.975Z,26.62
2023-04-26T05:57:28.666Z,26.64
2023-04-26T05:58:28.636Z,26.60
2023-04-26T05:59:28.686Z,26.60
2023-04-26T06:00:28.718Z,26.63
2023-04-26T06:01:28.717Z,26.64
2023-04-26T06:02:29.617Z,26.63
2023-04-26T06:03:29.121Z,26.63
2023-04-26T06:04:29.770Z,26.63
2023-04-26T06:05:29.243Z,26.64
2023-04-26T06:06:28.785Z,26.63
2023-04-26T06:07:29.008Z,26.66
2023-04-26T06:08:28.862Z,26.66
2023-04-26T06:09:28.931Z,26.66
2023-04-26T06:10:28.965Z,26.63
2023-04-26T06:11:28.927Z,26.66
2023-04-26T06:12:28.983Z,26.66
2023-04-26T06:13:29.451Z,26.66
2023-04-26T06:14:30.863Z,26.63
2023-04-26T06:15:29.058Z,26.66
2023-04-26T06:16:29.062Z,26.63
2023-04-26T06:17:29.130Z,26.66
2023-04-26T06:18:29.486Z,26.68
2023-04-26T06:19:29.151Z,26.66
2023-04-26T06:20:29.285Z,26.63
2023-04-26T06:21:29.128Z,26.66
2023-04-26T06:22:29.161Z,26.64
2023-04-26T06:23:29.225Z,26.64
2023-04-26T06:24:29.221Z,26.62
2023-04-26T06:25:29.287Z,26.63
2023-04-26T06:26:29.282Z,26.64
2023-04-26T06:27:29.350Z,26.60
2023-04-26T06:28:29.394Z,26.58
2023-04-26T06:29:29.616Z,26.60
2023-04-26T06:30:29.423Z,26.56
2023-04-26T06:31:29.409Z,26.55
2023-04-26T06:32:29.520Z,26.56
2023-04-26T06:33:29.535Z,26.51
2023-04-26T06:34:29.596Z,26.48
2023-04-26T06:35:29.449Z,26.43
2023-04-26T06:36:30.019Z,26.36
2023-04-26T06:37:29.538Z,26.35
2023-04-26T06:38:29.518Z,26.31
2023-04-26T06:39:30.027Z,26.29
2023-04-26T06:40:30.512Z,26.27
2023-04-26T06:41:29.604Z,26.29
2023-04-26T06:42:29.670Z,26.27
2023-04-26T06:43:29.658Z,26.28
2023-04-26T06:44:29.723Z,26.29
2023-04-26T06:45:29.720Z,26.32
2023-04-26T06:46:29.864Z,26.34
2023-04-26T06:47:29.806Z,26.36
2023-04-26T06:48:29.812Z,26.38
2023-04-26T06:49:29.906Z,26.39
2023-04-26T06:50:30.030Z,26.41
2023-04-26T06:51:29.941Z,26.43
2023-04-26T06:52:29.970Z,26.45
2023-04-26T06:53:29.948Z,26.43
2023-04-26T06:54:30.023Z,26.49
2023-04-26T06:55:29.998Z,26.45
2023-04-26T06:56:30.008Z,26.48
2023-04-26T06:57:30.107Z,26.48
2023-04-26T06:58:30.488Z,26.48
2023-04-26T06:59:30.138Z,26.51
2023-04-26T07:00:30.196Z,26.52
2023-04-26T07:01:31.071Z,26.52
2023-04-26T07:02:30.302Z,26.55
2023-04-26T07:03:30.681Z,26.56
2023-04-26T07:04:30.723Z,26.55
2023-04-26T07:05:30.307Z,26.56
2023-04-26T07:06:30.302Z,26.58
2023-04-26T07:07:30.373Z,26.58
2023-04-26T07:08:30.569Z,26.60
2023-04-26T07:09:30.401Z,26.60
2023-04-26T07:10:30.429Z,26.59
2023-04-26T07:11:30.600Z,26.63
2023-04-26T07:12:30.495Z,26.62
2023-04-26T07:13:30.424Z,26.62
2023-04-26T07:14:30.595Z,26.63
2023-04-26T07:15:30.510Z,26.68
2023-04-26T07:16:30.554Z,26.63
2023-04-26T07:17:30.675Z,26.64
2023-04-26T07:18:30.677Z,26.64
2023-04-26T07:19:30.775Z,26.69
2023-04-26T07:20:30.751Z,26.66
2023-04-26T07:21:30.689Z,26.66
2023-04-26T07:22:30.751Z,26.66
2023-04-26T07:23:31.001Z,26.66
2023-04-26T07:24:30.738Z,26.69
2023-04-26T07:25:30.851Z,26.68
2023-04-26T07:26:30.815Z,26.70
2023-04-26T07:27:30.832Z,26.69
2023-04-26T07:28:30.909Z,26.72
2023-04-26T07:29:31.088Z,26.70
2023-04-26T07:30:31.052Z,26.70
2023-04-26T07:31:30.977Z,26.73
2023-04-26T07:32:31.072Z,26.72
2023-04-26T07:33:31.241Z,26.72
2023-04-26T07:34:30.986Z,26.70
2023-04-26T07:35:30.981Z,26.73
2023-04-26T07:36:31.069Z,26.72
2023-04-26T07:37:31.062Z,26.70
2023-04-26T07:38:31.480Z,26.70
2023-04-26T07:39:31.621Z,26.73
2023-04-26T07:40:31.033Z,26.72
2023-04-26T07:41:31.012Z,26.72
2023-04-26T07:42:31.130Z,26.73
2023-04-26T07:43:31.117Z,26.75
2023-04-26T07:44:32.024Z,26.73
2023-04-26T07:45:31.168Z,26.73
2023-04-26T07:46:31.143Z,26.76
2023-04-26T07:47:31.168Z,26.75
2023-04-26T07:48:31.168Z,26.73
2023-04-26T07:49:31.989Z,26.75
2023-04-26T07:50:31.195Z,26.76
2023-04-26T07:51:31.260Z,26.78
2023-04-26T07:52:31.278Z,26.76
2023-04-26T07:53:31.287Z,26.78
2023-04-26T07:54:31.523Z,26.76
2023-04-26T07:55:31.326Z,26.78
2023-04-26T07:56:31.352Z,26.79
2023-04-26T07:57:31.354Z,26.80
2023-04-26T07:58:31.368Z,26.80
2023-04-26T07:59:31.539Z,26.79
2023-04-26T08:00:31.574Z,26.79
2023-04-26T08:01:31.543Z,26.80
2023-04-26T08:02:43.331Z,26.82
2023-04-26T08:03:32.587Z,26.82
2023-04-26T08:04:31.801Z,26.83
2023-04-26T08:05:31.828Z,26.82
2023-04-26T08:06:32.009Z,26.85
2023-04-26T08:07:31.404Z,26.86
2023-04-26T08:08:31.735Z,26.83
2023-04-26T08:09:31.403Z,26.85
2023-04-26T08:10:31.394Z,26.85
2023-04-26T08:11:31.624Z,26.86
2023-04-26T08:12:31.404Z,26.87
2023-04-26T08:13:31.359Z,26.86
2023-04-26T08:14:31.348Z,26.90
2023-04-26T08:15:31.355Z,26.90
2023-04-26T08:16:31.670Z,26.85
2023-04-26T08:17:31.456Z,26.89
2023-04-26T08:18:31.460Z,26.89
2023-04-26T08:19:31.423Z,26.90
2023-04-26T08:20:31.468Z,26.90
2023-04-26T08:21:31.525Z,26.89
2023-04-26T08:22:31.814Z,26.91
2023-04-26T08:23:31.596Z,26.90
2023-04-26T08:24:32.061Z,26.90
2023-04-26T08:25:32.078Z,26.90
2023-04-26T08:26:31.657Z,26.90
2023-04-26T08:27:31.698Z,26.90
2023-04-26T08:28:31.664Z,26.91
2023-04-26T08:29:31.675Z,26.87
2023-04-26T08:30:31.820Z,26.90
2023-04-26T08:31:31.923Z,26.90
2023-04-26T08:32:31.802Z,26.89
2023-04-26T08:33:31.734Z,26.90
2023-04-26T08:34:31.883Z,26.89
2023-04-26T08:35:31.787Z,26.90
2023-04-26T08:36:31.815Z,26.91
2023-04-26T08:37:31.890Z,26.93
2023-04-26T08:38:32.014Z,26.94
2023-04-26T08:39:31.973Z,26.93
2023-04-26T08:40:31.973Z,26.93
2023-04-26T08:41:32.019Z,26.93
2023-04-26T08:42:31.988Z,26.91
2023-04-26T08:43:32.033Z,26.91
2023-04-26T08:44:32.036Z,26.93
2023-04-26T08:45:32.608Z,26.93
2023-04-26T08:46:32.149Z,26.89
2023-04-26T08:47:33.096Z,26.89
2023-04-26T08:48:32.165Z,26.89
2023-04-26T08:49:32.583Z,26.86
2023-04-26T08:50:32.257Z,26.83
2023-04-26T08:51:32.211Z,26.86
2023-04-26T08:52:32.294Z,26.86
2023-04-26T08:53:32.532Z,26.89
2023-04-26T08:54:32.347Z,26.86
2023-04-26T08:55:32.381Z,26.87
2023-04-26T08:56:32.380Z,26.90
2023-04-26T08:57:32.433Z,26.93
2023-04-26T08:58:32.467Z,26.90
2023-04-26T08:59:32.477Z,26.93
2023-04-26T09:00:32.534Z,26.90
2023-04-26T09:01:32.621Z,26.94
2023-04-26T09:02:32.744Z,26.90
2023-04-26T09:03:33.178Z,26.94
2023-04-26T09:04:32.902Z,26.93
2023-04-26T09:05:32.726Z,26.91
2023-04-26T09:06:32.727Z,26.94
2023-04-26T09:07:32.851Z,26.91
2023-04-26T09:08:32.804Z,26.93
2023-04-26T09:09:33.049Z,26.93
2023-04-26T09:10:33.036Z,26.93
2023-04-26T09:11:33.120Z,26.94
2023-04-26T09:12:32.912Z,26.94
2023-04-26T09:13:32.934Z,26.96
2023-04-26T09:14:32.996Z,26.96
2023-04-26T09:15:33.054Z,26.97
2023-04-26T09:16:33.173Z,26.99
2023-04-26T09:17:33.116Z,26.97
2023-04-26T09:18:33.097Z,26.94
2023-04-26T09:19:33.175Z,26.97
2023-04-26T09:20:33.549Z,26.99
2023-04-26T09:21:33.292Z,26.97
2023-04-26T09:22:33.279Z,26.96
2023-04-26T09:23:33.386Z,26.97
2023-04-26T09:24:33.402Z,26.99
2023-04-26T09:25:33.395Z,26.97
2023-04-26T09:26:33.485Z,26.97
2023-04-26T09:27:33.459Z,26.96
2023-04-26T09:28:33.557Z,26.96
2023-04-26T09:29:34.557Z,26.96
2023-04-26T09:30:33.683Z,26.96
2023-04-26T09:31:33.742Z,26.96
2023-04-26T09:32:33.766Z,26.94
2023-04-26T09:33:34.961Z,26.91
2023-04-26T09:34:34.057Z,26.90
2023-04-26T09:35:33.819Z,26.91
2023-04-26T09:36:34.555Z,26.90
2023-04-26T09:37:34.541Z,26.91
2023-04-26T09:38:33.946Z,26.91
2023-04-26T09:39:34.069Z,26.91
2023-04-26T09:40:33.939Z,26.91
2023-04-26T09:41:33.977Z,26.91
2023-04-26T09:42:34.030Z,26.91
2023-04-26T09:43:35.838Z,26.93
2023-04-26T09:44:34.120Z,26.90
2023-04-26T09:45:34.165Z,26.91
2023-04-26T09:46:34.263Z,26.93
2023-04-26T09:47:34.259Z,26.91
2023-04-26T09:48:34.224Z,26.93
2023-04-26T09:49:34.289Z,26.94
2023-04-26T09:50:34.326Z,26.94
2023-04-26T09:51:34.294Z,26.97
2023-04-26T09:52:34.376Z,26.97
2023-04-26T09:53:34.434Z,26.97
2023-04-26T09:54:34.421Z,26.99
2023-04-26T09:55:35.705Z,26.97
2023-04-26T09:56:34.426Z,26.97
2023-04-26T09:57:34.495Z,26.99
2023-04-26T09:58:34.518Z,27.00
2023-04-26T09:59:34.518Z,26.97
2023-04-26T10:00:34.651Z,27.01
2023-04-26T10:01:34.803Z,27.06
2023-04-26T10:02:34.755Z,27.03
2023-04-26T10:03:34.826Z,27.03
2023-04-26T10:04:34.826Z,27.04
2023-04-26T10:05:34.827Z,27.06
2023-04-26T10:06:34.806Z,27.04
2023-04-26T10:07:34.952Z,27.06
2023-04-26T10:08:34.958Z,27.06
2023-04-26T10:09:34.999Z,27.03
2023-04-26T10:10:35.015Z,27.06
2023-04-26T10:11:35.121Z,27.06
2023-04-26T10:12:35.132Z,27.04
2023-04-26T10:13:35.214Z,27.03
2023-04-26T10:14:35.173Z,27.06
2023-04-26T10:15:35.237Z,27.03
2023-04-26T10:16:35.287Z,27.07
2023-04-26T10:17:35.457Z,27.07
2023-04-26T10:18:35.381Z,27.04
2023-04-26T10:19:35.407Z,27.07
2023-04-26T10:20:35.545Z,27.06
2023-04-26T10:21:35.500Z,27.07
2023-04-26T10:22:35.455Z,27.10
2023-04-26T10:23:35.571Z,27.06
2023-04-26T10:24:35.620Z,27.07
2023-04-26T10:25:35.667Z,27.10
2023-04-26T10:26:36.654Z,27.10
2023-04-26T10:27:35.634Z,27.11
2023-04-26T10:28:35.745Z,27.09
2023-04-26T10:29:36.334Z,27.09
2023-04-26T10:30:36.070Z,27.09
2023-04-26T10:31:36.138Z,27.11
2023-04-26T10:32:35.988Z,27.11
2023-04-26T10:33:36.561Z,27.10
2023-04-26T10:34:36.058Z,27.11
2023-04-26T10:35:36.054Z,27.13
2023-04-26T10:36:36.036Z,27.10
2023-04-26T10:37:36.167Z,27.11
2023-04-26T10:38:36.702Z,27.11
2023-04-26T10:39:36.162Z,27.11
2023-04-26T10:40:37.240Z,27.13
2023-04-26T10:41:36.654Z,27.17
2023-04-26T10:42:36.258Z,27.17
2023-04-26T10:43:36.655Z,27.18
2023-04-26T10:44:37.047Z,27.17
2023-04-26T10:45:36.403Z,27.14
2023-04-26T10:46:36.706Z,27.15
2023-04-26T10:47:36.496Z,27.17
2023-04-26T10:48:36.605Z,27.15
2023-04-26T10:49:36.527Z,27.17
2023-04-26T10:50:36.571Z,27.14
2023-04-26T10:51:36.585Z,27.17
2023-04-26T10:52:37.096Z,27.18
2023-04-26T10:53:36.669Z,27.21
2023-04-26T10:54:36.713Z,27.23
2023-04-26T10:55:36.741Z,27.23
2023-04-26T10:56:36.761Z,27.26
2023-04-26T10:57:37.067Z,27.24
2023-04-26T10:58:36.845Z,27.26
2023-04-26T10:59:51.247Z,27.26
2023-04-26T11:00:37.918Z,27.23
2023-04-26T11:01:36.843Z,27.24
2023-04-26T11:02:36.914Z,27.23
2023-04-26T11:03:37.050Z,27.24
2023-04-26T11:04:36.914Z,27.24
2023-04-26T11:05:36.815Z,27.27
2023-04-26T11:06:36.897Z,27.23
2023-04-26T11:07:36.897Z,27.26
2023-04-26T11:08:36.770Z,27.24
2023-04-26T11:09:36.787Z,27.23
2023-04-26T11:10:36.895Z,27.23
2023-04-26T11:11:36.833Z,27.24
2023-04-26T11:12:36.808Z,27.21
2023-04-26T11:13:37.670Z,27.24
2023-04-26T11:14:36.791Z,27.23
2023-04-26T11:15:36.835Z,27.23
2023-04-26T11:16:37.208Z,27.23
2023-04-26T11:17:36.878Z,27.21
2023-04-26T11:18:36.880Z,27.26
2023-04-26T11:19:37.072Z,27.24
2023-04-26T11:20:36.960Z,27.20
2023-04-26T11:21:36.998Z,27.21
2023-04-26T11:22:37.075Z,27.20
2023-04-26T11:23:37.053Z,27.21
2023-04-26T11:24:37.101Z,27.26
2023-04-26T11:25:37.208Z,27.24
2023-04-26T11:26:37.213Z,27.21
2023-04-26T11:27:37.238Z,27.24
2023-04-26T11:28:37.292Z,27.23
2023-04-26T11:29:37.296Z,27.21
2023-04-26T11:30:37.381Z,27.23
2023-04-26T11:31:37.649Z,27.23
2023-04-26T11:32:37.429Z,27.23
2023-04-26T11:33:37.390Z,27.23
2023-04-26T11:34:37.438Z,27.21
2023-04-26T11:35:37.494Z,27.24
2023-04-26T11:36:37.520Z,27.24
2023-04-26T11:37:37.549Z,27.24
2023-04-26T11:38:37.658Z,27.24
2023-04-26T11:39:37.586Z,27.26
2023-04-26T11:40:37.675Z,27.24
2023-04-26T11:41:37.709Z,27.26
2023-04-26T11:42:37.726Z,27.26
2023-04-26T11:43:37.834Z,27.26
2023-04-26T11:44:37.736Z,27.26
2023-04-26T11:45:37.760Z,27.27
2023-04-26T11:46:37.902Z,27.24
2023-04-26T11:47:37.836Z,27.26
2023-04-26T11:48:37.834Z,27.26
2023-04-26T11:49:37.906Z,27.24
2023-04-26T11:50:37.922Z,27.27
2023-04-26T11:51:37.930Z,27.24
2023-04-26T11:52:38.031Z,27.27
2023-04-26T11:53:38.112Z,27.27
2023-04-26T11:54:38.271Z,27.24
2023-04-26T11:55:38.054Z,27.26
2023-04-26T11:56:38.164Z,27.24
2023-04-26T11:57:38.037Z,27.26
2023-04-26T11:58:38.117Z,27.26
2023-04-26T11:59:38.619Z,27.27
2023-04-26T12:00:38.229Z,27.27
2023-04-26T12:01:38.213Z,27.27
2023-04-26T12:02:38.323Z,27.29
2023-04-26T12:03:38.488Z,27.27
2023-04-26T12:04:38.842Z,27.26
2023-04-26T12:05:38.369Z,27.27
2023-04-26T12:06:38.347Z,27.27
2023-04-26T12:07:39.483Z,27.26
2023-04-26T12:08:38.408Z,27.26
2023-04-26T12:09:38.463Z,27.27
2023-04-26T12:10:38.419Z,27.27
2023-04-26T12:11:38.448Z,27.29
2023-04-26T12:12:38.590Z,27.30
2023-04-26T12:13:38.488Z,27.30
2023-04-26T12:14:38.619Z,27.29
2023-04-26T12:15:38.695Z,27.33
2023-04-26T12:16:38.635Z,27.31
2023-04-26T12:17:38.618Z,27.33
2023-04-26T12:18:38.623Z,27.31
2023-04-26T12:19:38.708Z,27.33
2023-04-26T12:20:38.709Z,27.34
2023-04-26T12:21:38.747Z,27.29
2023-04-26T12:22:38.747Z,27.31
2023-04-26T12:23:38.822Z,27.31
2023-04-26T12:24:38.767Z,27.33
2023-04-26T12:25:38.901Z,27.33
2023-04-26T12:26:38.890Z,27.33
2023-04-26T12:27:38.872Z,27.33
2023-04-26T12:28:38.934Z,27.31
2023-04-26T12:29:38.966Z,27.33
2023-04-26T12:30:38.978Z,27.33
2023-04-26T12:31:39.030Z,27.30
2023-04-26T12:32:38.974Z,27.33
2023-04-26T12:33:39.021Z,27.30
2023-04-26T12:34:39.125Z,27.30
2023-04-26T12:35:39.091Z,27.33
2023-04-26T12:36:39.046Z,27.29
2023-04-26T12:37:39.051Z,27.29
2023-04-26T12:38:39.057Z,27.31
2023-04-26T12:39:39.069Z,27.31
2023-04-26T12:40:39.149Z,27.31
2023-04-26T12:41:39.141Z,27.29
2023-04-26T12:42:39.161Z,27.31
2023-04-26T12:43:39.252Z,27.33
2023-04-26T12:44:39.621Z,27.30
2023-04-26T12:45:39.289Z,27.30
2023-04-26T12:46:39.333Z,27.29
2023-04-26T12:47:39.549Z,27.29
2023-04-26T12:48:39.301Z,27.27
2023-04-26T12:49:39.316Z,27.30
2023-04-26T12:50:39.310Z,27.29
2023-04-26T12:51:39.313Z,27.30
2023-04-26T12:52:39.435Z,27.29